sensor_id;sensor_type;location;lat;lon;timestamp;noise_LAeq;noise_LA_min;noise_LA_max;noise_LA01;noise_LA95
17594;Laerm;8916;47.086;15.920;2023-12-20T00:01:43;49.48;48.45;50.46;;
17594;Laerm;8916;47.086;15.920;2023-12-20T00:04:13;49.49;48.46;50.79;;
17594;Laerm;8916;47.086;15.920;2023-12-20T00:06:42;49.49;48.29;50.59;;
17594;Laerm;8916;47.086;15.920;2023-12-20T00:09:11;49.49;48.40;50.63;;
17594;Laerm;8916;47.086;15.920;2023-12-20T00:11:40;49.49;48.46;50.62;;
17594;Laerm;8916;47.086;15.920;2023-12-20T00:14:09;49.49;48.49;50.98;;
17594;Laerm;8916;47.086;15.920;2023-12-20T00:16:40;49.48;48.43;50.55;;
17594;Laerm;8916;47.086;15.920;2023-12-20T00:19:09;49.49;48.34;50.54;;
17594;Laerm;8916;47.086;15.920;2023-12-20T00:21:38;49.48;48.31;50.57;;
17594;Laerm;8916;47.086;15.920;2023-12-20T00:24:07;49.49;48.28;50.56;;
17594;Laerm;8916;47.086;15.920;2023-12-20T00:26:36;49.50;48.15;50.67;;
17594;Laerm;8916;47.086;15.920;2023-12-20T00:29:05;49.50;48.58;50.55;;
17594;Laerm;8916;47.086;15.920;2023-12-20T00:31:34;49.49;48.39;50.47;;
17594;Laerm;8916;47.086;15.920;2023-12-20T00:34:04;49.49;48.44;50.66;;
17594;Laerm;8916;47.086;15.920;2023-12-20T00:36:34;49.49;48.54;50.70;;
17594;Laerm;8916;47.086;15.920;2023-12-20T00:39:03;49.49;48.51;50.50;;
17594;Laerm;8916;47.086;15.920;2023-12-20T00:41:32;49.50;48.42;50.78;;
17594;Laerm;8916;47.086;15.920;2023-12-20T00:44:01;49.50;48.34;50.43;;
17594;Laerm;8916;47.086;15.920;2023-12-20T00:46:30;49.50;48.42;50.56;;
17594;Laerm;8916;47.086;15.920;2023-12-20T00:48:59;49.50;48.46;50.59;;
17594;Laerm;8916;47.086;15.920;2023-12-20T00:51:29;49.50;48.48;50.49;;
17594;Laerm;8916;47.086;15.920;2023-12-20T00:53:58;49.49;48.34;50.77;;
17594;Laerm;8916;47.086;15.920;2023-12-20T00:56:27;49.49;48.40;50.57;;
17594;Laerm;8916;47.086;15.920;2023-12-20T00:58:56;49.49;48.49;50.45;;
17594;Laerm;8916;47.086;15.920;2023-12-20T01:01:25;49.50;48.23;50.61;;
17594;Laerm;8916;47.086;15.920;2023-12-20T01:03:54;49.51;48.34;50.57;;
17594;Laerm;8916;47.086;15.920;2023-12-20T01:06:23;49.50;48.48;50.72;;
17594;Laerm;8916;47.086;15.920;2023-12-20T01:08:54;49.51;48.23;50.74;;
17594;Laerm;8916;47.086;15.920;2023-12-20T01:11:23;49.49;48.32;50.68;;
17594;Laerm;8916;47.086;15.920;2023-12-20T01:13:52;49.50;48.54;50.74;;
17594;Laerm;8916;47.086;15.920;2023-12-20T01:16:20;49.51;48.23;50.59;;
17594;Laerm;8916;47.086;15.920;2023-12-20T01:18:49;49.51;48.42;50.68;;
17594;Laerm;8916;47.086;15.920;2023-12-20T01:21:19;49.52;48.40;50.62;;
17594;Laerm;8916;47.086;15.920;2023-12-20T01:23:48;49.50;48.32;50.74;;
17594;Laerm;8916;47.086;15.920;2023-12-20T01:26:18;49.51;48.21;50.54;;
17594;Laerm;8916;47.086;15.920;2023-12-20T01:28:47;49.51;48.43;50.61;;
17594;Laerm;8916;47.086;15.920;2023-12-20T01:31:16;49.52;48.51;50.74;;
17594;Laerm;8916;47.086;15.920;2023-12-20T01:33:45;49.51;48.43;51.07;;
17594;Laerm;8916;47.086;15.920;2023-12-20T01:36:14;49.51;48.46;50.87;;
17594;Laerm;8916;47.086;15.920;2023-12-20T01:38:43;49.51;48.32;50.56;;
17594;Laerm;8916;47.086;15.920;2023-12-20T01:41:12;49.51;48.46;50.75;;
17594;Laerm;8916;47.086;15.920;2023-12-20T01:43:43;49.50;48.32;50.63;;
17594;Laerm;8916;47.086;15.920;2023-12-20T01:46:19;49.51;48.46;50.57;;
17594;Laerm;8916;47.086;15.920;2023-12-20T01:48:49;49.51;48.49;50.57;;
17594;Laerm;8916;47.086;15.920;2023-12-20T01:51:18;49.52;48.48;50.58;;
17594;Laerm;8916;47.086;15.920;2023-12-20T01:53:48;49.51;48.46;50.63;;
17594;Laerm;8916;47.086;15.920;2023-12-20T01:56:18;49.51;48.46;50.60;;
17594;Laerm;8916;47.086;15.920;2023-12-20T01:58:48;49.52;48.49;50.60;;
17594;Laerm;8916;47.086;15.920;2023-12-20T02:01:17;49.51;48.46;50.56;;
17594;Laerm;8916;47.086;15.920;2023-12-20T02:03:47;49.52;48.39;50.56;;
17594;Laerm;8916;47.086;15.920;2023-12-20T02:06:17;49.52;48.18;50.68;;
17594;Laerm;8916;47.086;15.920;2023-12-20T02:08:47;49.51;48.40;50.78;;
17594;Laerm;8916;47.086;15.920;2023-12-20T02:11:16;49.51;48.34;50.71;;
17594;Laerm;8916;47.086;15.920;2023-12-20T02:13:45;49.52;48.42;50.59;;
17594;Laerm;8916;47.086;15.920;2023-12-20T02:16:16;49.51;48.23;50.64;;
17594;Laerm;8916;47.086;15.920;2023-12-20T02:18:45;49.51;48.31;50.60;;
17594;Laerm;8916;47.086;15.920;2023-12-20T02:21:14;49.51;48.48;50.60;;
17594;Laerm;8916;47.086;15.920;2023-12-20T02:23:45;49.51;48.45;50.67;;
17594;Laerm;8916;47.086;15.920;2023-12-20T02:26:14;49.51;48.42;50.69;;
17594;Laerm;8916;47.086;15.920;2023-12-20T02:28:43;49.53;48.49;50.65;;
17594;Laerm;8916;47.086;15.920;2023-12-20T02:31:12;49.52;48.51;50.51;;
17594;Laerm;8916;47.086;15.920;2023-12-20T02:33:41;49.52;48.48;50.56;;
17594;Laerm;8916;47.086;15.920;2023-12-20T02:36:10;49.51;48.45;50.76;;
17594;Laerm;8916;47.086;15.920;2023-12-20T02:38:39;49.52;48.51;50.66;;
17594;Laerm;8916;47.086;15.920;2023-12-20T02:41:10;49.51;48.43;50.70;;
17594;Laerm;8916;47.086;15.920;2023-12-20T02:43:39;49.53;48.45;50.68;;
17594;Laerm;8916;47.086;15.920;2023-12-20T02:46:08;49.52;48.52;50.73;;
17594;Laerm;8916;47.086;15.920;2023-12-20T02:48:36;49.52;48.40;50.53;;
17594;Laerm;8916;47.086;15.920;2023-12-20T02:51:06;49.53;48.49;50.54;;
17594;Laerm;8916;47.086;15.920;2023-12-20T02:53:35;49.52;48.25;50.47;;
17594;Laerm;8916;47.086;15.920;2023-12-20T02:56:05;49.52;48.55;50.55;;
17594;Laerm;8916;47.086;15.920;2023-12-20T02:58:35;49.53;48.28;50.67;;
17594;Laerm;8916;47.086;15.920;2023-12-20T03:01:04;49.52;48.43;50.60;;
17594;Laerm;8916;47.086;15.920;2023-12-20T03:03:33;49.52;48.23;50.79;;
17594;Laerm;8916;47.086;15.920;2023-12-20T03:06:03;49.52;48.26;50.81;;
17594;Laerm;8916;47.086;15.920;2023-12-20T03:08:32;49.52;48.45;50.57;;
17594;Laerm;8916;47.086;15.920;2023-12-20T03:11:01;49.53;48.32;50.63;;
17594;Laerm;8916;47.086;15.920;2023-12-20T03:13:30;49.53;48.31;50.63;;
17594;Laerm;8916;47.086;15.920;2023-12-20T03:16:00;49.52;48.36;50.84;;
17594;Laerm;8916;47.086;15.920;2023-12-20T03:18:29;49.51;48.29;50.56;;
17594;Laerm;8916;47.086;15.920;2023-12-20T03:20:58;49.52;48.52;50.57;;
17594;Laerm;8916;47.086;15.920;2023-12-20T03:23:27;49.52;48.29;50.60;;
17594;Laerm;8916;47.086;15.920;2023-12-20T03:25:58;49.52;48.34;50.61;;
17594;Laerm;8916;47.086;15.920;2023-12-20T03:28:27;49.54;48.46;50.57;;
17594;Laerm;8916;47.086;15.920;2023-12-20T03:30:56;49.53;48.40;50.56;;
17594;Laerm;8916;47.086;15.920;2023-12-20T03:33:27;49.53;48.52;50.59;;
17594;Laerm;8916;47.086;15.920;2023-12-20T03:35:56;49.52;48.51;50.66;;
17594;Laerm;8916;47.086;15.920;2023-12-20T03:38:25;49.54;48.34;50.71;;
17594;Laerm;8916;47.086;15.920;2023-12-20T03:40:54;49.53;48.46;50.58;;
17594;Laerm;8916;47.086;15.920;2023-12-20T03:43:23;49.53;48.39;50.65;;
17594;Laerm;8916;47.086;15.920;2023-12-20T03:45:52;49.53;48.29;50.63;;
17594;Laerm;8916;47.086;15.920;2023-12-20T03:48:21;49.53;48.37;50.63;;
17594;Laerm;8916;47.086;15.920;2023-12-20T03:50:51;49.53;48.31;50.81;;
17594;Laerm;8916;47.086;15.920;2023-12-20T03:53:20;49.53;48.54;50.67;;
17594;Laerm;8916;47.086;15.920;2023-12-20T03:55:49;49.53;48.58;50.72;;
17594;Laerm;8916;47.086;15.920;2023-12-20T03:58:18;49.53;48.55;50.75;;
17594;Laerm;8916;47.086;15.920;2023-12-20T04:00:47;49.54;48.51;50.55;;
17594;Laerm;8916;47.086;15.920;2023-12-20T04:03:16;49.54;48.37;50.62;;
17594;Laerm;8916;47.086;15.920;2023-12-20T04:05:46;49.55;48.32;50.85;;
17594;Laerm;8916;47.086;15.920;2023-12-20T04:08:16;49.54;48.55;50.48;;
17594;Laerm;8916;47.086;15.920;2023-12-20T04:10:45;49.55;48.10;50.61;;
17594;Laerm;8916;47.086;15.920;2023-12-20T04:13:14;49.55;48.51;50.60;;
17594;Laerm;8916;47.086;15.920;2023-12-20T04:15:43;49.55;48.55;50.60;;
17594;Laerm;8916;47.086;15.920;2023-12-20T04:18:12;49.57;48.49;50.72;;
17594;Laerm;8916;47.086;15.920;2023-12-20T04:20:41;49.55;48.60;50.77;;
17594;Laerm;8916;47.086;15.920;2023-12-20T04:23:10;49.55;48.54;50.62;;
17594;Laerm;8916;47.086;15.920;2023-12-20T04:25:41;49.56;48.48;50.56;;
17594;Laerm;8916;47.086;15.920;2023-12-20T04:28:10;49.55;48.46;50.58;;
17594;Laerm;8916;47.086;15.920;2023-12-20T04:30:39;49.55;48.49;50.71;;
17594;Laerm;8916;47.086;15.920;2023-12-20T04:33:08;49.55;48.39;50.68;;
17594;Laerm;8916;47.086;15.920;2023-12-20T04:35:37;49.55;48.37;50.69;;
17594;Laerm;8916;47.086;15.920;2023-12-20T04:38:08;49.56;48.52;50.56;;
17594;Laerm;8916;47.086;15.920;2023-12-20T04:40:37;49.55;48.36;50.61;;
17594;Laerm;8916;47.086;15.920;2023-12-20T04:43:10;49.56;48.40;50.62;;
17594;Laerm;8916;47.086;15.920;2023-12-20T04:45:39;49.56;48.54;50.78;;
17594;Laerm;8916;47.086;15.920;2023-12-20T04:48:08;49.56;48.32;50.69;;
17594;Laerm;8916;47.086;15.920;2023-12-20T04:50:37;49.56;48.42;50.81;;
17594;Laerm;8916;47.086;15.920;2023-12-20T04:53:06;49.55;48.40;50.63;;
17594;Laerm;8916;47.086;15.920;2023-12-20T04:55:35;49.55;48.40;50.78;;
17594;Laerm;8916;47.086;15.920;2023-12-20T04:58:04;49.56;48.18;50.74;;
17594;Laerm;8916;47.086;15.920;2023-12-20T05:00:34;49.55;48.51;50.50;;
17594;Laerm;8916;47.086;15.920;2023-12-20T05:03:04;49.55;48.39;50.74;;
17594;Laerm;8916;47.086;15.920;2023-12-20T05:05:33;49.54;48.48;50.74;;
17594;Laerm;8916;47.086;15.920;2023-12-20T05:08:03;49.54;48.28;50.68;;
17594;Laerm;8916;47.086;15.920;2023-12-20T05:10:32;49.55;48.32;50.54;;
17594;Laerm;8916;47.086;15.920;2023-12-20T05:13:02;49.54;48.26;50.70;;
17594;Laerm;8916;47.086;15.920;2023-12-20T05:15:31;49.54;48.34;50.62;;
17594;Laerm;8916;47.086;15.920;2023-12-20T05:18:02;49.55;48.40;50.80;;
17594;Laerm;8916;47.086;15.920;2023-12-20T05:20:31;49.55;48.15;50.75;;
17594;Laerm;8916;47.086;15.920;2023-12-20T05:23:00;49.55;48.40;50.62;;
17594;Laerm;8916;47.086;15.920;2023-12-20T05:25:29;49.55;48.43;50.59;;
17594;Laerm;8916;47.086;15.920;2023-12-20T05:27:58;49.54;48.45;50.68;;
17594;Laerm;8916;47.086;15.920;2023-12-20T05:30:27;49.54;48.48;50.56;;
17594;Laerm;8916;47.086;15.920;2023-12-20T05:32:56;49.54;48.43;50.59;;
17594;Laerm;8916;47.086;15.920;2023-12-20T05:35:27;49.54;48.49;50.80;;
17594;Laerm;8916;47.086;15.920;2023-12-20T05:37:56;49.55;48.49;50.83;;
17594;Laerm;8916;47.086;15.920;2023-12-20T05:40:25;49.55;48.48;50.53;;
17594;Laerm;8916;47.086;15.920;2023-12-20T05:42:54;49.56;48.39;50.74;;
17594;Laerm;8916;47.086;15.920;2023-12-20T05:45:23;49.55;48.43;50.54;;
17594;Laerm;8916;47.086;15.920;2023-12-20T05:47:52;49.56;48.48;50.58;;
17594;Laerm;8916;47.086;15.920;2023-12-20T05:50:22;49.56;48.63;50.74;;
17594;Laerm;8916;47.086;15.920;2023-12-20T05:52:52;49.57;48.32;50.66;;
17594;Laerm;8916;47.086;15.920;2023-12-20T05:55:21;49.56;48.42;50.74;;
17594;Laerm;8916;47.086;15.920;2023-12-20T05:57:51;49.55;48.43;50.70;;
17594;Laerm;8916;47.086;15.920;2023-12-20T06:00:20;49.56;48.43;50.83;;
17594;Laerm;8916;47.086;15.920;2023-12-20T06:02:49;49.56;48.49;50.69;;
17594;Laerm;8916;47.086;15.920;2023-12-20T06:05:18;49.56;48.57;50.85;;
17594;Laerm;8916;47.086;15.920;2023-12-20T06:07:47;49.55;48.26;50.56;;
17594;Laerm;8916;47.086;15.920;2023-12-20T06:10:20;49.55;48.43;50.67;;
17594;Laerm;8916;47.086;15.920;2023-12-20T06:12:49;49.55;48.34;50.63;;
17594;Laerm;8916;47.086;15.920;2023-12-20T06:15:19;49.55;48.48;50.69;;
17594;Laerm;8916;47.086;15.920;2023-12-20T06:17:48;49.55;48.51;50.54;;
17594;Laerm;8916;47.086;15.920;2023-12-20T06:20:18;49.56;48.46;50.69;;
17594;Laerm;8916;47.086;15.920;2023-12-20T06:22:47;49.54;48.54;50.61;;
17594;Laerm;8916;47.086;15.920;2023-12-20T06:25:16;49.55;48.34;50.57;;
17594;Laerm;8916;47.086;15.920;2023-12-20T06:27:47;49.55;48.57;50.88;;
17594;Laerm;8916;47.086;15.920;2023-12-20T06:30:17;49.54;48.58;50.72;;
17594;Laerm;8916;47.086;15.920;2023-12-20T06:32:46;49.55;48.18;50.59;;
17594;Laerm;8916;47.086;15.920;2023-12-20T06:35:15;49.54;48.52;50.61;;
17594;Laerm;8916;47.086;15.920;2023-12-20T06:37:44;49.53;48.32;50.50;;
17594;Laerm;8916;47.086;15.920;2023-12-20T06:40:14;49.54;48.48;50.64;;
17594;Laerm;8916;47.086;15.920;2023-12-20T06:42:47;49.53;48.48;50.99;;
17594;Laerm;8916;47.086;15.920;2023-12-20T06:45:32;49.53;48.57;50.69;;
17594;Laerm;8916;47.086;15.920;2023-12-20T06:48:01;49.53;48.31;50.75;;
17594;Laerm;8916;47.086;15.920;2023-12-20T06:50:30;49.53;48.37;50.57;;
17594;Laerm;8916;47.086;15.920;2023-12-20T06:52:59;49.52;48.45;50.64;;
17594;Laerm;8916;47.086;15.920;2023-12-20T06:55:35;49.52;48.36;50.55;;
17594;Laerm;8916;47.086;15.920;2023-12-20T06:58:07;49.50;48.36;50.54;;
17594;Laerm;8916;47.086;15.920;2023-12-20T07:00:36;49.50;48.58;50.68;;
17594;Laerm;8916;47.086;15.920;2023-12-20T07:03:05;49.50;48.39;50.48;;
17594;Laerm;8916;47.086;15.920;2023-12-20T07:05:34;49.50;48.34;50.67;;
17594;Laerm;8916;47.086;15.920;2023-12-20T07:08:05;49.50;48.36;50.70;;
17594;Laerm;8916;47.086;15.920;2023-12-20T07:10:34;49.49;48.32;50.51;;
17594;Laerm;8916;47.086;15.920;2023-12-20T07:13:03;49.48;48.37;50.68;;
17594;Laerm;8916;47.086;15.920;2023-12-20T07:15:34;49.47;48.40;50.56;;
17594;Laerm;8916;47.086;15.920;2023-12-20T07:18:05;49.45;48.29;50.54;;
17594;Laerm;8916;47.086;15.920;2023-12-20T07:20:35;49.44;48.37;50.56;;
17594;Laerm;8916;47.086;15.920;2023-12-20T07:23:04;49.43;48.42;50.49;;
17594;Laerm;8916;47.086;15.920;2023-12-20T07:25:33;49.41;48.23;50.63;;
17594;Laerm;8916;47.086;15.920;2023-12-20T07:28:02;49.40;48.25;50.70;;
17594;Laerm;8916;47.086;15.920;2023-12-20T07:30:31;49.39;48.26;50.64;;
17594;Laerm;8916;47.086;15.920;2023-12-20T07:33:03;49.39;48.18;50.56;;
17594;Laerm;8916;47.086;15.920;2023-12-20T07:35:32;49.40;48.32;50.52;;
17594;Laerm;8916;47.086;15.920;2023-12-20T07:38:01;49.38;48.28;50.57;;
17594;Laerm;8916;47.086;15.920;2023-12-20T07:40:31;49.37;48.21;50.45;;
17594;Laerm;8916;47.086;15.920;2023-12-20T07:43:00;49.36;48.26;50.71;;
17594;Laerm;8916;47.086;15.920;2023-12-20T07:45:29;49.35;48.23;50.49;;
17594;Laerm;8916;47.086;15.920;2023-12-20T07:47:58;49.37;48.36;50.64;;
17594;Laerm;8916;47.086;15.920;2023-12-20T07:50:28;49.37;48.28;50.53;;
17594;Laerm;8916;47.086;15.920;2023-12-20T07:52:57;49.36;48.23;50.50;;
17594;Laerm;8916;47.086;15.920;2023-12-20T07:55:28;49.40;48.42;50.46;;
17594;Laerm;8916;47.086;15.920;2023-12-20T07:57:59;49.42;48.36;50.68;;
17594;Laerm;8916;47.086;15.920;2023-12-20T08:00:28;49.42;48.39;50.50;;
17594;Laerm;8916;47.086;15.920;2023-12-20T08:02:57;49.43;48.25;50.73;;
17594;Laerm;8916;47.086;15.920;2023-12-20T08:05:27;49.42;48.25;50.63;;
17594;Laerm;8916;47.086;15.920;2023-12-20T08:07:56;49.43;48.36;50.84;;
17594;Laerm;8916;47.086;15.920;2023-12-20T08:10:25;49.42;48.32;50.38;;
17594;Laerm;8916;47.086;15.920;2023-12-20T08:12:57;49.42;48.31;50.37;;
17594;Laerm;8916;47.086;15.920;2023-12-20T08:15:26;49.42;48.08;50.51;;
17594;Laerm;8916;47.086;15.920;2023-12-20T08:17:55;49.41;48.20;50.52;;
17594;Laerm;8916;47.086;15.920;2023-12-20T08:20:24;49.41;48.15;50.43;;
17594;Laerm;8916;47.086;15.920;2023-12-20T08:23:08;49.41;48.13;50.46;;
17594;Laerm;8916;47.086;15.920;2023-12-20T08:25:37;49.40;48.18;50.55;;
17594;Laerm;8916;47.086;15.920;2023-12-20T08:28:06;49.40;48.12;50.54;;
17594;Laerm;8916;47.086;15.920;2023-12-20T08:30:35;49.41;48.28;50.57;;
17594;Laerm;8916;47.086;15.920;2023-12-20T08:33:05;49.41;48.25;50.71;;
17594;Laerm;8916;47.086;15.920;2023-12-20T08:35:39;49.40;48.32;50.69;;
17594;Laerm;8916;47.086;15.920;2023-12-20T08:38:10;49.41;48.42;50.47;;
17594;Laerm;8916;47.086;15.920;2023-12-20T08:40:39;49.40;48.21;50.49;;
17594;Laerm;8916;47.086;15.920;2023-12-20T08:43:08;49.41;48.26;50.46;;
17594;Laerm;8916;47.086;15.920;2023-12-20T08:45:37;49.39;48.29;50.42;;
17594;Laerm;8916;47.086;15.920;2023-12-20T08:48:07;49.40;48.25;50.43;;
17594;Laerm;8916;47.086;15.920;2023-12-20T08:50:37;49.40;48.36;50.44;;
17594;Laerm;8916;47.086;15.920;2023-12-20T08:53:06;49.41;48.36;50.34;;
17594;Laerm;8916;47.086;15.920;2023-12-20T08:55:37;49.40;48.37;50.58;;
17594;Laerm;8916;47.086;15.920;2023-12-20T08:58:06;49.39;48.32;50.49;;
17594;Laerm;8916;47.086;15.920;2023-12-20T09:00:35;49.39;48.29;50.56;;
17594;Laerm;8916;47.086;15.920;2023-12-20T09:03:06;49.39;48.03;50.45;;
17594;Laerm;8916;47.086;15.920;2023-12-20T09:05:36;49.38;48.34;50.61;;
17594;Laerm;8916;47.086;15.920;2023-12-20T09:08:05;49.38;48.34;50.32;;
17594;Laerm;8916;47.086;15.920;2023-12-20T09:10:37;49.38;48.03;50.38;;
17594;Laerm;8916;47.086;15.920;2023-12-20T09:13:06;49.38;48.26;50.37;;
17594;Laerm;8916;47.086;15.920;2023-12-20T09:15:35;49.36;48.25;50.42;;
17594;Laerm;8916;47.086;15.920;2023-12-20T09:18:05;49.36;48.29;50.47;;
17594;Laerm;8916;47.086;15.920;2023-12-20T09:20:35;49.35;48.29;50.51;;
17594;Laerm;8916;47.086;15.920;2023-12-20T09:23:07;49.36;48.15;50.52;;
17594;Laerm;8916;47.086;15.920;2023-12-20T09:25:38;49.36;48.16;50.46;;
17594;Laerm;8916;47.086;15.920;2023-12-20T09:28:07;49.36;48.07;50.37;;
17594;Laerm;8916;47.086;15.920;2023-12-20T09:30:36;49.35;48.28;50.47;;
17594;Laerm;8916;47.086;15.920;2023-12-20T09:33:07;49.36;48.08;50.58;;
17594;Laerm;8916;47.086;15.920;2023-12-20T09:35:37;49.36;48.29;50.47;;
17594;Laerm;8916;47.086;15.920;2023-12-20T09:38:06;49.35;48.20;50.58;;
17594;Laerm;8916;47.086;15.920;2023-12-20T09:40:38;49.34;48.29;50.45;;
17594;Laerm;8916;47.086;15.920;2023-12-20T09:43:13;49.35;48.26;50.41;;
17594;Laerm;8916;47.086;15.920;2023-12-20T09:45:47;49.35;48.28;50.40;;
17594;Laerm;8916;47.086;15.920;2023-12-20T09:48:18;49.35;48.12;50.46;;
17594;Laerm;8916;47.086;15.920;2023-12-20T09:50:48;49.36;48.26;50.58;;
17594;Laerm;8916;47.086;15.920;2023-12-20T09:53:21;49.35;48.32;50.45;;
17594;Laerm;8916;47.086;15.920;2023-12-20T09:55:59;49.35;48.16;50.46;;
17594;Laerm;8916;47.086;15.920;2023-12-20T09:58:28;49.34;48.23;50.68;;
17594;Laerm;8916;47.086;15.920;2023-12-20T10:00:58;49.33;48.23;50.57;;
17594;Laerm;8916;47.086;15.920;2023-12-20T10:03:27;49.34;48.39;50.43;;
17594;Laerm;8916;47.086;15.920;2023-12-20T10:05:57;49.33;48.36;50.36;;
17594;Laerm;8916;47.086;15.920;2023-12-20T10:08:28;49.33;48.26;50.64;;
17594;Laerm;8916;47.086;15.920;2023-12-20T10:11:01;49.32;48.18;50.36;;
17594;Laerm;8916;47.086;15.920;2023-12-20T10:13:31;49.33;48.26;50.34;;
17594;Laerm;8916;47.086;15.920;2023-12-20T10:16:00;49.33;48.03;50.47;;
17594;Laerm;8916;47.086;15.920;2023-12-20T10:18:30;49.32;48.20;50.44;;
17594;Laerm;8916;47.086;15.920;2023-12-20T10:21:06;49.31;48.32;50.39;;
17594;Laerm;8916;47.086;15.920;2023-12-20T10:23:37;49.33;48.29;50.36;;
17594;Laerm;8916;47.086;15.920;2023-12-20T10:26:10;49.32;48.20;50.40;;
17594;Laerm;8916;47.086;15.920;2023-12-20T10:28:40;49.32;48.12;50.56;;
17594;Laerm;8916;47.086;15.920;2023-12-20T10:31:09;49.32;48.31;50.29;;
17594;Laerm;8916;47.086;15.920;2023-12-20T10:33:40;49.32;48.26;50.50;;
17594;Laerm;8916;47.086;15.920;2023-12-20T10:36:09;49.30;48.05;50.49;;
17594;Laerm;8916;47.086;15.920;2023-12-20T10:38:42;49.30;48.18;50.53;;
17594;Laerm;8916;47.086;15.920;2023-12-20T10:41:14;49.30;48.12;50.43;;
17594;Laerm;8916;47.086;15.920;2023-12-20T10:43:57;49.28;48.20;50.52;;
17594;Laerm;8916;47.086;15.920;2023-12-20T10:46:27;49.28;48.20;50.38;;
17594;Laerm;8916;47.086;15.920;2023-12-20T10:48:57;49.27;48.08;50.40;;
17594;Laerm;8916;47.086;15.920;2023-12-20T10:51:27;49.26;48.25;50.54;;
17594;Laerm;8916;47.086;15.920;2023-12-20T10:53:57;49.26;48.10;50.35;;
17594;Laerm;8916;47.086;15.920;2023-12-20T10:56:32;49.25;48.12;50.40;;
17594;Laerm;8916;47.086;15.920;2023-12-20T10:59:03;49.25;48.21;50.37;;
17594;Laerm;8916;47.086;15.920;2023-12-20T11:01:35;49.26;48.23;50.56;;
17594;Laerm;8916;47.086;15.920;2023-12-20T11:04:06;49.26;48.26;50.43;;
17594;Laerm;8916;47.086;15.920;2023-12-20T11:06:46;49.28;48.16;50.63;;
17594;Laerm;8916;47.086;15.920;2023-12-20T11:09:24;49.28;48.20;50.52;;
17594;Laerm;8916;47.086;15.920;2023-12-20T11:12:06;49.28;48.28;50.35;;
17594;Laerm;8916;47.086;15.920;2023-12-20T11:14:43;49.28;48.20;50.55;;
17594;Laerm;8916;47.086;15.920;2023-12-20T11:17:14;49.29;48.23;50.42;;
17594;Laerm;8916;47.086;15.920;2023-12-20T11:20:06;49.28;47.83;50.52;;
17594;Laerm;8916;47.086;15.920;2023-12-20T11:22:36;49.28;48.08;50.44;;
17594;Laerm;8916;47.086;15.920;2023-12-20T11:25:10;49.28;48.13;50.31;;
17594;Laerm;8916;47.086;15.920;2023-12-20T11:27:42;49.29;48.31;50.36;;
17594;Laerm;8916;47.086;15.920;2023-12-20T11:30:16;49.29;48.08;50.52;;
17594;Laerm;8916;47.086;15.920;2023-12-20T11:32:46;49.28;48.26;50.37;;
17594;Laerm;8916;47.086;15.920;2023-12-20T11:35:19;49.28;48.02;50.57;;
17594;Laerm;8916;47.086;15.920;2023-12-20T11:37:49;49.28;48.23;50.34;;
17594;Laerm;8916;47.086;15.920;2023-12-20T11:40:18;49.27;47.96;50.33;;
17594;Laerm;8916;47.086;15.920;2023-12-20T11:42:51;49.27;48.23;50.27;;
17594;Laerm;8916;47.086;15.920;2023-12-20T11:45:24;49.27;48.26;50.65;;
17594;Laerm;8916;47.086;15.920;2023-12-20T11:47:58;49.27;48.15;50.53;;
17594;Laerm;8916;47.086;15.920;2023-12-20T11:50:27;49.27;48.20;50.49;;
17594;Laerm;8916;47.086;15.920;2023-12-20T11:52:57;49.28;48.02;50.45;;
17594;Laerm;8916;47.086;15.920;2023-12-20T11:55:26;49.27;48.26;50.32;;
17594;Laerm;8916;47.086;15.920;2023-12-20T11:57:57;49.26;48.18;50.44;;
17594;Laerm;8916;47.086;15.920;2023-12-20T12:00:26;49.27;48.16;50.45;;
17594;Laerm;8916;47.086;15.920;2023-12-20T12:02:56;49.27;48.15;50.66;;
17594;Laerm;8916;47.086;15.920;2023-12-20T12:05:26;49.26;48.20;50.36;;
17594;Laerm;8916;47.086;15.920;2023-12-20T12:07:55;49.26;48.07;50.36;;
17594;Laerm;8916;47.086;15.920;2023-12-20T12:10:24;49.27;48.12;50.42;;
17594;Laerm;8916;47.086;15.920;2023-12-20T12:12:53;49.26;48.25;50.46;;
17594;Laerm;8916;47.086;15.920;2023-12-20T12:15:25;49.26;48.23;50.43;;
17594;Laerm;8916;47.086;15.920;2023-12-20T12:17:54;49.25;48.13;50.51;;
17594;Laerm;8916;47.086;15.920;2023-12-20T12:20:24;49.25;48.29;50.32;;
17594;Laerm;8916;47.086;15.920;2023-12-20T12:23:00;49.26;48.25;50.32;;
17594;Laerm;8916;47.086;15.920;2023-12-20T12:25:30;49.25;48.25;50.29;;
17594;Laerm;8916;47.086;15.920;2023-12-20T12:28:00;49.25;48.15;50.27;;
17594;Laerm;8916;47.086;15.920;2023-12-20T12:30:31;49.23;48.15;50.27;;
17594;Laerm;8916;47.086;15.920;2023-12-20T12:33:06;49.25;48.21;50.40;;
17594;Laerm;8916;47.086;15.920;2023-12-20T12:35:35;49.26;48.08;50.35;;
17594;Laerm;8916;47.086;15.920;2023-12-20T12:38:07;49.25;48.28;50.60;;
17594;Laerm;8916;47.086;15.920;2023-12-20T12:40:36;49.25;48.13;50.30;;
17594;Laerm;8916;47.086;15.920;2023-12-20T12:43:05;49.26;48.10;50.60;;
17594;Laerm;8916;47.086;15.920;2023-12-20T12:45:36;49.25;48.23;50.34;;
17594;Laerm;8916;47.086;15.920;2023-12-20T12:48:07;49.26;48.15;50.33;;
17594;Laerm;8916;47.086;15.920;2023-12-20T12:50:36;49.25;48.21;50.28;;
17594;Laerm;8916;47.086;15.920;2023-12-20T12:53:05;49.25;48.05;50.28;;
17594;Laerm;8916;47.086;15.920;2023-12-20T12:55:35;49.26;48.34;50.34;;
17594;Laerm;8916;47.086;15.920;2023-12-20T12:58:04;49.25;48.03;50.36;;
17594;Laerm;8916;47.086;15.920;2023-12-20T13:00:37;49.26;48.03;50.33;;
17594;Laerm;8916;47.086;15.920;2023-12-20T13:03:06;49.25;48.05;50.33;;
17594;Laerm;8916;47.086;15.920;2023-12-20T13:05:36;49.26;48.25;50.27;;
17594;Laerm;8916;47.086;15.920;2023-12-20T13:08:09;49.25;48.20;50.56;;
17594;Laerm;8916;47.086;15.920;2023-12-20T13:10:39;49.27;48.12;50.52;;
17594;Laerm;8916;47.086;15.920;2023-12-20T13:13:08;49.26;48.05;50.51;;
17594;Laerm;8916;47.086;15.920;2023-12-20T13:15:39;49.26;48.00;50.58;;
17594;Laerm;8916;47.086;15.920;2023-12-20T13:18:08;49.27;48.18;50.56;;
17594;Laerm;8916;47.086;15.920;2023-12-20T13:20:38;49.26;48.23;50.41;;
17594;Laerm;8916;47.086;15.920;2023-12-20T13:23:08;49.27;48.32;50.68;;
17594;Laerm;8916;47.086;15.920;2023-12-20T13:25:37;49.26;48.20;50.34;;
17594;Laerm;8916;47.086;15.920;2023-12-20T13:28:06;49.27;48.08;50.54;;
17594;Laerm;8916;47.086;15.920;2023-12-20T13:30:36;49.26;48.15;50.57;;
17594;Laerm;8916;47.086;15.920;2023-12-20T13:33:08;49.26;48.03;50.33;;
17594;Laerm;8916;47.086;15.920;2023-12-20T13:35:37;49.26;48.12;50.22;;
17594;Laerm;8916;47.086;15.920;2023-12-20T13:38:07;49.27;48.20;50.28;;
17594;Laerm;8916;47.086;15.920;2023-12-20T13:40:36;49.25;48.23;50.25;;
17594;Laerm;8916;47.086;15.920;2023-12-20T13:43:05;49.25;48.15;50.58;;
17594;Laerm;8916;47.086;15.920;2023-12-20T13:45:34;49.27;47.77;50.35;;
17594;Laerm;8916;47.086;15.920;2023-12-20T13:48:05;49.25;48.18;50.50;;
17594;Laerm;8916;47.086;15.920;2023-12-20T13:50:35;49.25;47.84;50.39;;
17594;Laerm;8916;47.086;15.920;2023-12-20T13:53:04;49.26;48.12;50.34;;
17594;Laerm;8916;47.086;15.920;2023-12-20T13:55:33;49.25;48.05;50.31;;
17594;Laerm;8916;47.086;15.920;2023-12-20T13:58:03;49.26;48.20;50.44;;
17594;Laerm;8916;47.086;15.920;2023-12-20T14:00:32;49.26;48.20;50.77;;